createdAt,value
2017-04-13T00:00:32.866Z,0
2017-04-13T00:01:13.347Z,0
2017-04-13T00:01:53.786Z,0
2017-04-13T00:02:34.221Z,0
2017-04-13T00:03:14.659Z,0
2017-04-13T00:03:55.105Z,0
2017-04-13T00:04:35.571Z,0
2017-04-13T00:05:15.978Z,0
2017-04-13T00:07:34.669Z,0
2017-04-13T00:08:15.128Z,0
2017-04-13T00:10:32.965Z,0
2017-04-13T00:11:13.394Z,0
2017-04-13T00:11:53.840Z,0
2017-04-13T00:12:34.297Z,0
2017-04-13T00:13:14.719Z,0
2017-04-13T00:13:55.158Z,0
2017-04-13T00:14:35.607Z,0
2017-04-13T00:15:16.091Z,0
2017-04-13T00:15:56.550Z,0
2017-04-13T00:16:36.986Z,0
2017-04-13T00:17:17.420Z,0
2017-04-13T00:17:57.862Z,0
2017-04-13T00:18:38.290Z,0
2017-04-13T00:19:18.764Z,0
2017-04-13T00:19:59.234Z,0
2017-04-13T00:22:17.064Z,0
2017-04-13T00:22:57.520Z,0
2017-04-13T00:23:38.001Z,0
2017-04-13T00:24:18.505Z,0
2017-04-13T00:24:58.989Z,0
2017-04-13T00:25:39.454Z,0
2017-04-13T00:26:20.455Z,0
2017-04-13T00:27:00.958Z,0
2017-04-13T00:29:28.869Z,0
2017-04-13T00:30:09.371Z,0
2017-04-13T00:30:49.855Z,0
2017-04-13T00:31:30.333Z,0
2017-04-13T00:32:10.796Z,0
2017-04-13T00:32:51.264Z,0
2017-04-13T00:33:31.741Z,0
2017-04-13T00:34:12.252Z,0
2017-04-13T00:34:52.656Z,0
2017-04-13T00:35:33.098Z,0
2017-04-13T00:36:13.551Z,0
2017-04-13T00:36:54.011Z,0
2017-04-13T00:37:34.473Z,0
2017-04-13T00:38:14.928Z,0
2017-04-13T00:38:55.350Z,0
2017-04-13T00:39:35.769Z,0
2017-04-13T00:40:16.202Z,0
2017-04-13T00:40:56.660Z,0
2017-04-13T00:41:37.086Z,0
2017-04-13T00:42:17.579Z,0
2017-04-13T00:42:58.094Z,0
2017-04-13T00:43:38.545Z,0
2017-04-13T00:44:19.034Z,0
2017-04-13T00:44:59.468Z,0
2017-04-13T00:45:39.932Z,0
2017-04-13T00:46:20.390Z,0
2017-04-13T00:47:00.871Z,0
2017-04-13T00:49:28.776Z,0
2017-04-13T00:50:09.238Z,0
2017-04-13T00:50:49.720Z,0
2017-04-13T00:51:30.173Z,0
2017-04-13T00:52:10.643Z,0
2017-04-13T00:52:51.110Z,0
2017-04-13T00:53:31.550Z,0
2017-04-13T00:54:12.041Z,0
2017-04-13T00:54:52.464Z,0
2017-04-13T00:55:32.922Z,0
2017-04-13T00:56:13.367Z,0
2017-04-13T00:56:53.833Z,0
2017-04-13T00:57:34.236Z,0
2017-04-13T00:58:14.651Z,0
2017-04-13T00:58:55.099Z,0
2017-04-13T00:59:35.503Z,0
2017-04-13T01:00:15.950Z,0
2017-04-13T01:00:56.390Z,0
2017-04-13T01:01:36.839Z,0
2017-04-13T01:02:17.293Z,0
2017-04-13T01:02:57.728Z,0
2017-04-13T01:03:38.197Z,0
2017-04-13T01:04:18.675Z,0
2017-04-13T01:04:59.152Z,0
2017-04-13T01:05:39.600Z,0
2017-04-13T01:06:20.002Z,0
2017-04-13T01:07:00.447Z,0
2017-04-13T01:07:40.902Z,0
2017-04-13T01:08:21.366Z,0
2017-04-13T01:10:34.077Z,0
2017-04-13T01:11:14.567Z,0
2017-04-13T01:11:55.020Z,0
2017-04-13T01:12:36.091Z,0
2017-04-13T01:13:16.519Z,0
2017-04-13T01:13:56.980Z,0
2017-04-13T01:14:37.403Z,0
2017-04-13T01:15:17.810Z,0
2017-04-13T01:15:58.235Z,0
2017-04-13T01:18:16.036Z,0
2017-04-13T01:18:56.461Z,0
2017-04-13T01:19:36.904Z,0
2017-04-13T01:20:17.386Z,0
2017-04-13T01:20:57.879Z,0
2017-04-13T01:21:38.236Z,0
2017-04-13T01:22:18.705Z,0
2017-04-13T01:22:59.216Z,0
2017-04-13T01:23:39.655Z,0
2017-04-13T01:24:20.105Z,0
2017-04-13T01:25:00.550Z,0
2017-04-13T01:25:40.989Z,0
2017-04-13T01:26:21.447Z,0
2017-04-13T01:27:01.879Z,0
2017-04-13T01:27:42.363Z,0
2017-04-13T01:28:22.812Z,0
2017-04-13T01:29:03.286Z,0
2017-04-13T01:29:43.732Z,0
2017-04-13T01:30:24.156Z,0
2017-04-13T01:31:04.605Z,0
2017-04-13T01:31:45.111Z,0
2017-04-13T01:34:02.968Z,0
2017-04-13T01:34:43.378Z,0
2017-04-13T01:35:23.891Z,0
2017-04-13T01:36:04.339Z,0
2017-04-13T01:36:44.834Z,0
2017-04-13T01:37:25.305Z,0
2017-04-13T01:38:05.827Z,0
2017-04-13T01:38:46.285Z,0
2017-04-13T01:39:26.748Z,0
2017-04-13T01:40:07.235Z,0
2017-04-13T01:40:47.672Z,0
2017-04-13T01:43:20.692Z,0
2017-04-13T01:44:01.133Z,0
2017-04-13T01:44:41.610Z,0
2017-04-13T01:45:22.054Z,0
2017-04-13T01:46:02.508Z,0
2017-04-13T01:46:42.916Z,0
2017-04-13T01:47:23.372Z,0
2017-04-13T01:48:04.676Z,0
2017-04-13T01:48:45.937Z,0
2017-04-13T01:49:26.387Z,0
2017-04-13T01:50:06.831Z,0
2017-04-13T01:50:47.240Z,0
2017-04-13T01:51:27.667Z,0
2017-04-13T01:52:08.126Z,0
2017-04-13T01:52:48.529Z,0
2017-04-13T01:53:28.990Z,0
2017-04-13T01:54:09.450Z,0
2017-04-13T01:54:49.904Z,0
2017-04-13T01:55:30.354Z,0
2017-04-13T01:56:10.793Z,0
2017-04-13T01:58:38.750Z,0
2017-04-13T01:59:19.222Z,0
2017-04-13T01:59:59.838Z,0
2017-04-13T02:00:40.386Z,0
2017-04-13T02:01:20.858Z,0
2017-04-13T02:02:01.355Z,0
2017-04-13T02:02:41.830Z,0
2017-04-13T02:03:22.311Z,0
2017-04-13T02:04:02.795Z,0
2017-04-13T02:04:43.266Z,0
2017-04-13T02:05:23.724Z,0
2017-04-13T02:06:04.214Z,0
2017-04-13T02:06:44.651Z,0
2017-04-13T02:09:12.567Z,0
2017-04-13T02:13:43.386Z,0
2017-04-13T02:14:23.848Z,0
2017-04-13T02:15:04.310Z,0
2017-04-13T02:17:22.167Z,0
2017-04-13T02:18:02.628Z,0
2017-04-13T02:18:43.103Z,0
2017-04-13T02:19:23.551Z,0
2017-04-13T02:20:03.980Z,0
2017-04-13T02:20:44.465Z,0
2017-04-13T02:21:24.887Z,0
2017-04-13T02:22:05.328Z,0
2017-04-13T02:22:45.789Z,0
2017-04-13T02:23:26.209Z,0
2017-04-13T02:24:06.718Z,0
2017-04-13T02:24:47.177Z,0
2017-04-13T02:25:27.626Z,0
2017-04-13T02:26:08.084Z,0
2017-04-13T02:26:48.535Z,0
2017-04-13T02:27:29.009Z,0
2017-04-13T02:28:09.457Z,0
2017-04-13T02:28:49.920Z,0
2017-04-13T02:29:30.371Z,0
2017-04-13T02:30:10.789Z,0
2017-04-13T02:30:51.251Z,0
2017-04-13T02:31:31.688Z,0
2017-04-13T02:32:12.113Z,0
2017-04-13T02:32:52.559Z,0
2017-04-13T02:33:33.019Z,0
2017-04-13T02:34:13.472Z,0
2017-04-13T02:34:53.901Z,0
2017-04-13T02:35:34.337Z,0
2017-04-13T02:36:14.841Z,0
2017-04-13T02:36:55.260Z,0
2017-04-13T02:37:35.764Z,0
2017-04-13T02:38:16.232Z,0
2017-04-13T02:38:56.684Z,0
2017-04-13T02:39:37.143Z,0
2017-04-13T02:40:17.599Z,0
2017-04-13T02:40:58.093Z,0
2017-04-13T02:41:38.531Z,0
2017-04-13T02:42:18.973Z,0
2017-04-13T02:42:59.434Z,0
2017-04-13T02:43:39.888Z,0
2017-04-13T02:44:20.312Z,0
2017-04-13T02:45:00.751Z,0
2017-04-13T02:45:41.226Z,0
2017-04-13T02:48:19.320Z,0
2017-04-13T02:48:59.816Z,0
2017-04-13T02:49:40.293Z,0
2017-04-13T02:50:20.758Z,0
2017-04-13T02:52:38.552Z,0
2017-04-13T02:53:19.078Z,0
2017-04-13T02:53:59.681Z,0
2017-04-13T02:54:39.987Z,0
2017-04-13T02:55:20.473Z,0
2017-04-13T02:56:00.875Z,0
2017-04-13T02:56:41.301Z,0
2017-04-13T02:57:21.724Z,0
2017-04-13T02:59:39.608Z,0
2017-04-13T03:00:20.090Z,0
2017-04-13T03:01:00.551Z,0
2017-04-13T03:01:40.995Z,0
2017-04-13T03:02:21.462Z,0
2017-04-13T03:03:01.920Z,0
2017-04-13T03:03:42.391Z,0
2017-04-13T03:06:10.314Z,0
2017-04-13T03:06:50.775Z,0
2017-04-13T03:07:31.229Z,0
2017-04-13T03:08:11.681Z,0
2017-04-13T03:08:52.103Z,0
2017-04-13T03:09:32.558Z,0
2017-04-13T03:10:13.010Z,0
2017-04-13T03:10:53.437Z,0
2017-04-13T03:11:33.889Z,0
2017-04-13T03:12:14.297Z,0
2017-04-13T03:12:54.757Z,0
2017-04-13T03:13:35.203Z,0
2017-04-13T03:14:15.695Z,0
2017-04-13T03:14:56.122Z,0
2017-04-13T03:15:36.545Z,0
2017-04-13T03:16:16.978Z,0
2017-04-13T03:16:57.456Z,0
2017-04-13T03:17:37.902Z,0
2017-04-13T03:18:18.381Z,0
2017-04-13T03:18:58.818Z,0
2017-04-13T03:19:39.268Z,0
2017-04-13T03:20:19.785Z,0
2017-04-13T03:21:00.236Z,0
2017-04-13T03:23:18.063Z,0
2017-04-13T03:23:58.528Z,0
2017-04-13T03:24:38.987Z,0
2017-04-13T03:25:19.498Z,0
2017-04-13T03:26:00.007Z,0
2017-04-13T03:26:40.444Z,0
2017-04-13T03:27:20.858Z,0
2017-04-13T03:29:38.664Z,0
2017-04-13T03:30:19.144Z,0
2017-04-13T03:30:59.631Z,0
2017-04-13T03:31:40.091Z,0
2017-04-13T03:32:20.515Z,0
2017-04-13T03:33:00.969Z,0
2017-04-13T03:33:41.400Z,0
2017-04-13T03:34:21.834Z,0
2017-04-13T03:35:02.288Z,0
2017-04-13T03:35:42.751Z,0
2017-04-13T03:36:23.211Z,0
2017-04-13T03:37:03.659Z,0
2017-04-13T03:37:44.084Z,0
2017-04-13T03:38:24.648Z,0
2017-04-13T03:39:05.071Z,0
2017-04-13T03:39:45.512Z,0
2017-04-13T03:40:26.006Z,0
2017-04-13T03:41:06.478Z,0
2017-04-13T03:41:46.904Z,0
2017-04-13T03:42:27.325Z,0
2017-04-13T03:44:40.054Z,0
2017-04-13T03:45:20.531Z,0
2017-04-13T03:46:00.987Z,0
2017-04-13T03:48:28.895Z,0
2017-04-13T03:49:09.347Z,0
2017-04-13T03:49:49.881Z,0
2017-04-13T03:50:30.267Z,0
2017-04-13T03:51:10.732Z,0
2017-04-13T03:51:51.149Z,0
2017-04-13T03:52:31.643Z,0
2017-04-13T03:53:12.044Z,0
2017-04-13T03:53:52.506Z,0
2017-04-13T03:54:32.913Z,0
2017-04-13T03:55:13.405Z,0
2017-04-13T03:55:53.820Z,0
2017-04-13T03:56:34.247Z,0
2017-04-13T03:57:14.709Z,0
2017-04-13T03:57:55.105Z,0
2017-04-13T03:58:35.566Z,0
2017-04-13T03:59:16.023Z,0
2017-04-13T03:59:56.432Z,0
2017-04-13T04:02:34.556Z,0
2017-04-13T04:03:15.072Z,0
2017-04-13T04:03:55.542Z,0
2017-04-13T04:04:36.032Z,0
2017-04-13T04:05:16.510Z,0
2017-04-13T04:05:56.976Z,0
2017-04-13T04:06:37.463Z,0
2017-04-13T04:07:17.910Z,0
2017-04-13T04:07:58.353Z,0
2017-04-13T04:08:38.832Z,0
2017-04-13T04:09:19.275Z,0
2017-04-13T04:09:59.713Z,0
2017-04-13T04:10:40.179Z,0
2017-04-13T04:11:21.181Z,0
2017-04-13T04:12:01.638Z,0
2017-04-13T04:14:39.732Z,0
2017-04-13T04:15:20.250Z,0
2017-04-13T04:16:00.766Z,0
2017-04-13T04:16:41.208Z,0
2017-04-13T04:17:21.638Z,0
2017-04-13T04:18:02.072Z,0
2017-04-13T04:18:42.506Z,0
2017-04-13T04:19:22.958Z,0
2017-04-13T04:20:03.405Z,0
2017-04-13T04:20:43.856Z,0
2017-04-13T04:23:21.969Z,0
2017-04-13T04:24:02.373Z,0
2017-04-13T04:24:42.829Z,0
2017-04-13T04:25:23.265Z,0
2017-04-13T04:26:03.731Z,0
2017-04-13T04:26:44.147Z,0
2017-04-13T04:27:24.590Z,0
2017-04-13T04:28:04.970Z,0
2017-04-13T04:28:45.423Z,0
2017-04-13T04:29:25.917Z,0
2017-04-13T04:30:06.366Z,0
2017-04-13T04:30:46.780Z,0
2017-04-13T04:31:28.037Z,0
2017-04-13T04:32:08.480Z,0
2017-04-13T04:32:48.892Z,0
2017-04-13T04:33:29.332Z,0
2017-04-13T04:34:09.797Z,0
2017-04-13T04:34:50.221Z,0
2017-04-13T04:35:30.638Z,0
2017-04-13T04:36:11.072Z,0
2017-04-13T04:36:51.532Z,0
2017-04-13T04:37:31.982Z,0
2017-04-13T04:38:12.456Z,0
2017-04-13T04:38:52.905Z,0
2017-04-13T04:39:33.364Z,0
2017-04-13T04:40:13.815Z,0
2017-04-13T04:40:54.271Z,0
2017-04-13T04:41:34.691Z,5
2017-04-13T04:42:15.147Z,5
2017-04-13T04:42:55.554Z,5
2017-04-13T04:43:36.019Z,5
2017-04-13T04:44:16.457Z,5
2017-04-13T04:44:56.914Z,5
2017-04-13T04:45:37.378Z,5
2017-04-13T04:46:17.846Z,5
2017-04-13T04:46:59.248Z,5
2017-04-13T04:47:39.677Z,5
2017-04-13T04:48:20.185Z,5
2017-04-13T04:49:00.567Z,5
2017-04-13T04:51:18.354Z,10
2017-04-13T04:51:58.830Z,10
2017-04-13T04:52:39.325Z,10
2017-04-13T04:53:19.743Z,10
2017-04-13T04:54:00.185Z,10
2017-04-13T04:54:40.649Z,10
2017-04-13T04:55:21.078Z,10
2017-04-13T04:56:01.514Z,10
2017-04-13T04:56:41.973Z,10
2017-04-13T04:57:22.409Z,15
2017-04-13T04:58:02.830Z,15
2017-04-13T04:58:43.296Z,15
2017-04-13T04:59:23.769Z,15
2017-04-13T05:00:04.208Z,15
2017-04-13T05:00:44.630Z,15
2017-04-13T05:01:25.135Z,20
2017-04-13T05:02:05.588Z,20
2017-04-13T05:02:46.037Z,20
2017-04-13T05:03:26.500Z,20
2017-04-13T05:04:06.969Z,20
2017-04-13T05:04:47.420Z,20
2017-04-13T05:05:27.840Z,25
2017-04-13T05:06:08.294Z,25
2017-04-13T05:06:48.782Z,25
2017-04-13T05:07:29.200Z,25
2017-04-13T05:08:09.647Z,30
2017-04-13T05:08:50.115Z,30
2017-04-13T05:09:30.557Z,30
2017-04-13T05:10:10.986Z,35
2017-04-13T05:12:38.929Z,40
2017-04-13T05:13:19.347Z,40
2017-04-13T05:13:59.810Z,40
2017-04-13T05:16:32.821Z,45
2017-04-13T05:17:13.308Z,45
2017-04-13T05:17:54.492Z,45
2017-04-13T05:18:34.999Z,45
2017-04-13T05:19:15.411Z,50
2017-04-13T05:19:55.875Z,50
2017-04-13T05:20:36.324Z,50
2017-04-13T05:21:16.784Z,50
2017-04-13T05:21:57.254Z,50
2017-04-13T05:22:37.695Z,55
2017-04-13T05:23:18.147Z,60
2017-04-13T05:25:56.305Z,70
2017-04-13T05:26:36.780Z,70
2017-04-13T05:27:17.267Z,70
2017-04-13T05:27:57.711Z,75
2017-04-13T05:28:38.198Z,75
2017-04-13T05:29:18.698Z,75
2017-04-13T05:29:59.127Z,75
2017-04-13T05:30:39.575Z,70
2017-04-13T05:31:20.043Z,70
2017-04-13T05:32:00.493Z,70
2017-04-13T05:32:40.951Z,70
2017-04-13T05:33:21.408Z,70
2017-04-13T05:34:01.874Z,70
2017-04-13T05:34:42.319Z,70
2017-04-13T05:35:22.797Z,75
2017-04-13T05:36:03.239Z,75
2017-04-13T05:36:43.691Z,80
2017-04-13T05:37:24.111Z,80
2017-04-13T05:38:04.564Z,80
2017-04-13T05:38:45.073Z,80
2017-04-13T05:39:25.559Z,85
2017-04-13T05:40:05.981Z,85
2017-04-13T05:40:46.444Z,85
2017-04-13T05:43:24.627Z,90
2017-04-13T05:44:05.114Z,90
2017-04-13T05:44:45.599Z,90
2017-04-13T05:45:26.061Z,90
2017-04-13T05:46:06.522Z,95
2017-04-13T05:46:46.968Z,95
2017-04-13T05:47:27.395Z,100
2017-04-13T05:48:07.855Z,105
2017-04-13T05:50:25.695Z,120
2017-04-13T05:51:06.174Z,125
2017-04-13T05:51:46.668Z,130
2017-04-13T05:52:27.137Z,135
2017-04-13T05:53:07.630Z,140
2017-04-13T05:53:48.064Z,140
2017-04-13T05:54:28.517Z,140
2017-04-13T05:55:08.929Z,145
2017-04-13T05:55:49.376Z,145
2017-04-13T05:56:29.834Z,145
2017-04-13T05:57:10.244Z,140
2017-04-13T05:57:50.707Z,145
2017-04-13T05:58:31.136Z,150
2017-04-13T05:59:11.580Z,155
2017-04-13T05:59:52.016Z,155
2017-04-13T06:00:32.482Z,155
2017-04-13T06:01:12.952Z,155
2017-04-13T06:01:53.405Z,160
2017-04-13T06:02:33.909Z,160
2017-04-13T06:03:14.366Z,155
2017-04-13T06:03:54.821Z,155
2017-04-13T06:04:35.862Z,155
2017-04-13T06:05:16.320Z,155
2017-04-13T06:05:56.776Z,160
2017-04-13T06:06:37.226Z,160
2017-04-13T06:07:17.758Z,155
2017-04-13T06:09:35.582Z,150
2017-04-13T06:10:16.088Z,155
2017-04-13T06:10:56.546Z,160
2017-04-13T06:11:37.018Z,160
2017-04-13T06:12:17.490Z,165
2017-04-13T06:12:57.972Z,165
2017-04-13T06:13:38.432Z,165
2017-04-13T06:14:18.976Z,160
2017-04-13T06:14:59.409Z,155
2017-04-13T06:15:39.825Z,155
2017-04-13T06:16:20.275Z,155
2017-04-13T06:17:00.697Z,160
2017-04-13T06:17:41.150Z,165
2017-04-13T06:18:21.595Z,170
2017-04-13T06:19:02.017Z,175
2017-04-13T06:19:42.472Z,175
2017-04-13T06:20:22.916Z,175
2017-04-13T06:21:03.378Z,175
2017-04-13T06:21:43.793Z,175
2017-04-13T06:22:24.243Z,185
2017-04-13T06:23:04.706Z,195
2017-04-13T06:23:45.165Z,200
2017-04-13T06:24:25.626Z,205
2017-04-13T06:25:06.069Z,210
2017-04-13T06:25:46.497Z,200
2017-04-13T06:26:26.935Z,190
2017-04-13T06:27:07.405Z,170
2017-04-13T06:29:25.205Z,125
2017-04-13T06:30:05.627Z,120
2017-04-13T06:30:46.092Z,115
2017-04-13T06:31:26.559Z,115
2017-04-13T06:32:07.008Z,125
2017-04-13T06:32:47.448Z,140
2017-04-13T06:33:27.963Z,155
2017-04-13T06:34:08.383Z,170
2017-04-13T06:34:48.828Z,185
2017-04-13T06:35:29.290Z,190
2017-04-13T06:36:09.749Z,190
2017-04-13T06:36:50.248Z,190
2017-04-13T06:37:30.661Z,185
2017-04-13T06:38:11.112Z,180
2017-04-13T06:38:51.583Z,180
2017-04-13T06:39:32.035Z,185
2017-04-13T06:40:12.484Z,195
2017-04-13T06:40:52.933Z,200
2017-04-13T06:41:33.409Z,205
2017-04-13T06:42:13.867Z,210
2017-04-13T06:42:54.281Z,200
2017-04-13T06:43:34.729Z,195
2017-04-13T06:44:15.155Z,190
2017-04-13T06:44:55.602Z,190
2017-04-13T06:45:36.057Z,180
2017-04-13T06:46:16.535Z,175
2017-04-13T06:46:57.297Z,170
2017-04-13T06:47:37.752Z,170
2017-04-13T06:48:18.213Z,170
2017-04-13T06:48:58.649Z,175
2017-04-13T06:49:39.106Z,190
2017-04-13T06:50:20.178Z,195
2017-04-13T06:51:00.637Z,215
2017-04-13T06:51:41.105Z,235
2017-04-13T06:52:21.669Z,255
2017-04-13T06:53:02.199Z,265
2017-04-13T06:53:42.730Z,280
2017-04-13T06:54:23.183Z,280
2017-04-13T06:55:03.695Z,275
2017-04-13T06:55:44.199Z,265
2017-04-13T06:56:24.686Z,255
2017-04-13T06:57:05.132Z,250
2017-04-13T06:57:45.637Z,305
2017-04-13T06:58:26.207Z,255
2017-04-13T06:59:06.731Z,260
2017-04-13T06:59:47.283Z,280
2017-04-13T07:00:27.779Z,305
2017-04-13T07:01:08.305Z,320
2017-04-13T07:01:48.797Z,320
2017-04-13T07:02:29.305Z,315
2017-04-13T07:03:09.826Z,340
2017-04-13T07:03:50.313Z,435
2017-04-13T07:04:30.732Z,390
2017-04-13T07:05:11.187Z,375
2017-04-13T07:05:51.651Z,370
2017-04-13T07:06:32.108Z,370
2017-04-13T07:07:12.600Z,375
2017-04-13T07:07:52.979Z,375
2017-04-13T07:08:33.446Z,350
2017-04-13T07:09:13.877Z,345
2017-04-13T07:09:54.301Z,330
2017-04-13T07:10:34.744Z,335
2017-04-13T07:11:15.176Z,345
2017-04-13T07:11:56.177Z,350
2017-04-13T07:12:36.631Z,360
2017-04-13T07:13:17.078Z,340
2017-04-13T07:13:57.542Z,320
2017-04-13T07:14:38.025Z,315
2017-04-13T07:15:18.528Z,320
2017-04-13T07:15:58.990Z,335
2017-04-13T07:16:39.441Z,345
2017-04-13T07:17:19.918Z,350
2017-04-13T07:18:00.411Z,350
2017-04-13T07:18:40.850Z,350
2017-04-13T07:19:21.319Z,355
2017-04-13T07:20:01.784Z,365
2017-04-13T07:20:42.241Z,370
2017-04-13T07:21:22.670Z,360
2017-04-13T07:22:03.124Z,355
2017-04-13T07:24:31.067Z,345
2017-04-13T07:25:11.558Z,345
2017-04-13T07:25:52.003Z,365
2017-04-13T07:26:32.522Z,380
2017-04-13T07:28:45.247Z,345
2017-04-13T07:29:25.704Z,335
2017-04-13T07:30:06.189Z,330
2017-04-13T07:30:46.664Z,340
2017-04-13T07:31:27.137Z,345
2017-04-13T07:32:07.564Z,365
2017-04-13T07:32:48.681Z,395
2017-04-13T07:33:29.103Z,420
2017-04-13T07:34:09.592Z,455
2017-04-13T07:38:35.089Z,995
2017-04-13T07:39:15.569Z,635
2017-04-13T07:39:56.647Z,865
2017-04-13T07:40:37.035Z,875
2017-04-13T07:41:17.483Z,820
2017-04-13T07:41:57.937Z,705
2017-04-13T07:42:38.406Z,620
2017-04-13T07:43:18.862Z,540
2017-04-13T07:43:59.370Z,625
2017-04-13T07:44:39.790Z,460
2017-04-13T07:45:20.250Z,425
2017-04-13T07:46:00.687Z,395
2017-04-13T07:46:41.154Z,410
2017-04-13T07:47:21.616Z,390
2017-04-13T07:48:02.037Z,380
2017-04-13T07:48:42.486Z,380
2017-04-13T07:49:23.059Z,395
2017-04-13T07:50:03.502Z,390
2017-04-13T07:50:43.968Z,385
2017-04-13T07:51:24.475Z,405
2017-04-13T07:52:04.974Z,410
2017-04-13T07:54:33.031Z,565
2017-04-13T07:55:13.532Z,485
2017-04-13T07:55:54.082Z,520
2017-04-13T07:58:11.921Z,945
2017-04-13T07:58:52.407Z,880
2017-04-13T07:59:32.914Z,615
2017-04-13T08:02:01.147Z,455
2017-04-13T08:02:41.756Z,440
2017-04-13T08:03:22.366Z,410
2017-04-13T08:04:02.922Z,315
2017-04-13T08:04:43.530Z,315
2017-04-13T08:05:24.004Z,335
2017-04-13T08:06:04.538Z,360
2017-04-13T08:06:45.068Z,380
2017-04-13T08:07:25.523Z,395
2017-04-13T08:08:06.205Z,405
2017-04-13T08:08:46.649Z,415
2017-04-13T08:09:27.100Z,410
2017-04-13T08:10:07.651Z,385
2017-04-13T08:10:48.158Z,330
2017-04-13T08:11:28.730Z,335
2017-04-13T08:12:09.237Z,370
2017-04-13T08:12:49.720Z,410
2017-04-13T08:13:30.294Z,470
2017-04-13T08:14:10.889Z,605
2017-04-13T08:14:51.331Z,645
2017-04-13T08:15:34.595Z,695
2017-04-13T08:16:15.119Z,635
2017-04-13T08:16:55.581Z,695
2017-04-13T08:17:36.298Z,700
2017-04-13T08:18:16.755Z,710
2017-04-13T08:18:57.207Z,620
2017-04-13T08:19:37.713Z,600
2017-04-13T08:20:18.150Z,495
2017-04-13T08:20:58.662Z,610
2017-04-13T08:21:39.107Z,555
2017-04-13T08:22:19.607Z,470
2017-04-13T08:23:00.029Z,640
2017-04-13T08:23:40.560Z,730
2017-04-13T08:24:20.988Z,835
2017-04-13T08:25:01.425Z,870
2017-04-13T08:25:41.955Z,750
2017-04-13T08:26:22.476Z,785
2017-04-13T08:27:02.902Z,820
2017-04-13T08:27:43.398Z,570
2017-04-13T08:28:23.875Z,490
2017-04-13T08:29:04.395Z,495
2017-04-13T08:29:44.860Z,480
2017-04-13T08:30:26.370Z,460
2017-04-13T08:31:06.814Z,480
2017-04-13T08:31:47.289Z,470
2017-04-13T08:32:27.849Z,535
2017-04-13T08:33:08.667Z,580
2017-04-13T08:33:49.237Z,530
2017-04-13T08:34:29.779Z,475
2017-04-13T08:35:10.495Z,505
2017-04-13T08:35:51.079Z,540
2017-04-13T08:36:31.537Z,580
2017-04-13T08:37:11.987Z,595
2017-04-13T08:37:52.629Z,520
2017-04-13T08:38:33.534Z,410
2017-04-13T08:39:13.968Z,375
2017-04-13T08:39:54.434Z,370
2017-04-13T08:40:34.883Z,405
2017-04-13T08:41:16.422Z,440
2017-04-13T08:41:56.913Z,465
2017-04-13T08:42:37.412Z,490
2017-04-13T08:43:17.954Z,470
2017-04-13T08:43:58.461Z,415
2017-04-13T08:44:38.972Z,335
2017-04-13T08:45:19.487Z,295
2017-04-13T08:45:59.941Z,275
2017-04-13T08:46:40.561Z,280
2017-04-13T08:47:21.123Z,275
2017-04-13T08:48:01.619Z,265
2017-04-13T08:48:42.118Z,250
2017-04-13T08:49:22.729Z,255
2017-04-13T08:50:03.242Z,270
2017-04-13T08:50:43.813Z,290
2017-04-13T08:51:24.334Z,300
2017-04-13T08:52:04.819Z,330
2017-04-13T08:52:45.540Z,330
2017-04-13T08:53:26.128Z,345
2017-04-13T08:54:06.668Z,360
2017-04-13T08:54:47.214Z,365
2017-04-13T08:55:27.834Z,375
2017-04-13T08:56:08.343Z,390
2017-04-13T08:56:48.872Z,405
2017-04-13T08:57:29.420Z,420
2017-04-13T08:58:09.879Z,430
2017-04-13T08:58:51.291Z,460
2017-04-13T08:59:31.763Z,520
2017-04-13T09:00:12.270Z,620
2017-04-13T09:00:52.740Z,660
2017-04-13T09:01:33.198Z,720
2017-04-13T09:02:13.694Z,1420
2017-04-13T09:02:54.118Z,840
2017-04-13T09:03:34.610Z,690
2017-04-13T09:04:15.084Z,575
2017-04-13T09:04:55.545Z,640
2017-04-13T09:05:36.163Z,1060
2017-04-13T09:06:16.865Z,615
2017-04-13T09:06:57.164Z,730
2017-04-13T09:07:37.827Z,1670
2017-04-13T09:08:18.505Z,1505
2017-04-13T09:08:59.054Z,1300
2017-04-13T09:09:39.512Z,1115
2017-04-13T09:10:19.970Z,1135
2017-04-13T09:11:00.414Z,1110
2017-04-13T09:11:40.894Z,1040
2017-04-13T09:12:21.345Z,995
2017-04-13T09:13:01.795Z,950
2017-04-13T09:13:42.619Z,705
2017-04-13T09:14:23.132Z,485
2017-04-13T09:15:03.597Z,400
2017-04-13T09:15:44.182Z,380
2017-04-13T09:16:24.697Z,405
2017-04-13T09:17:05.106Z,450
2017-04-13T09:17:45.550Z,500
2017-04-13T09:18:26.130Z,545
2017-04-13T09:19:06.548Z,480
2017-04-13T09:19:47.035Z,380
2017-04-13T09:20:27.470Z,380
2017-04-13T09:21:07.920Z,390
2017-04-13T09:21:48.432Z,405
2017-04-13T09:22:28.884Z,410
2017-04-13T09:23:09.436Z,440
2017-04-13T09:23:49.883Z,385
2017-04-13T09:24:30.350Z,355
2017-04-13T09:25:10.777Z,340
2017-04-13T09:25:51.222Z,335
2017-04-13T09:26:31.696Z,320
2017-04-13T09:27:12.244Z,320
2017-04-13T09:29:45.258Z,545
2017-04-13T09:30:25.910Z,670
2017-04-13T09:31:06.383Z,685
2017-04-13T09:31:46.888Z,715
2017-04-13T09:32:27.337Z,1465
2017-04-13T09:33:07.808Z,750
2017-04-13T09:33:48.324Z,855
2017-04-13T09:34:28.769Z,1170
2017-04-13T09:35:10.258Z,1705
2017-04-13T09:35:51.100Z,1140
2017-04-13T09:36:33.508Z,620
2017-04-13T09:39:14.150Z,805
2017-04-13T09:41:42.277Z,1150
2017-04-13T09:42:22.831Z,995
2017-04-13T09:43:03.296Z,2090
2017-04-13T09:43:43.728Z,1050
2017-04-13T09:44:24.205Z,1240
2017-04-13T09:45:04.681Z,945
2017-04-13T09:45:45.169Z,685
2017-04-13T09:46:25.662Z,570
2017-04-13T09:47:06.176Z,535
2017-04-13T09:47:46.578Z,535
2017-04-13T09:48:28.675Z,555
2017-04-13T09:49:09.163Z,605
2017-04-13T09:49:49.619Z,605
2017-04-13T09:50:30.100Z,665
2017-04-13T09:51:10.603Z,2090
2017-04-13T09:51:51.052Z,695
2017-04-13T09:52:32.237Z,575
2017-04-13T09:53:13.489Z,580
2017-04-13T09:53:55.026Z,1230
2017-04-13T09:54:36.024Z,665
2017-04-13T09:55:16.484Z,505
2017-04-13T09:55:56.975Z,470
2017-04-13T09:56:37.497Z,485
2017-04-13T09:57:17.989Z,1225
2017-04-13T09:57:58.559Z,1415
2017-04-13T09:58:39.029Z,775
2017-04-13T09:59:19.534Z,820
2017-04-13T10:00:00.048Z,1335
2017-04-13T10:00:40.548Z,1555
2017-04-13T10:01:20.993Z,2255
2017-04-13T10:02:01.506Z,1225
2017-04-13T10:02:42.490Z,790
2017-04-13T10:05:10.510Z,2680
2017-04-13T10:05:50.991Z,2475
2017-04-13T10:06:32.132Z,2405
2017-04-13T10:07:12.572Z,1965
2017-04-13T10:07:53.328Z,1075
2017-04-13T10:08:33.823Z,765
2017-04-13T10:09:14.343Z,750
2017-04-13T10:09:54.776Z,685
2017-04-13T10:10:35.245Z,660
2017-04-13T10:11:15.782Z,635
2017-04-13T10:11:56.256Z,585
2017-04-13T10:12:37.730Z,555
2017-04-13T10:13:18.201Z,520
2017-04-13T10:13:58.660Z,475
2017-04-13T10:14:39.121Z,440
2017-04-13T10:15:19.571Z,395
2017-04-13T10:17:37.396Z,335
2017-04-13T10:18:17.913Z,340
2017-04-13T10:18:58.405Z,340
2017-04-13T10:19:38.873Z,365
2017-04-13T10:21:57.116Z,360
2017-04-13T10:22:37.621Z,340
2017-04-13T10:23:18.128Z,330
2017-04-13T10:23:58.672Z,330
2017-04-13T10:24:39.213Z,350
2017-04-13T10:25:19.713Z,380
2017-04-13T10:26:00.179Z,435
2017-04-13T10:26:40.657Z,530
2017-04-13T10:27:21.103Z,640
2017-04-13T10:28:01.595Z,2220
2017-04-13T10:28:42.008Z,2240
2017-04-13T10:31:09.929Z,500
2017-04-13T10:31:50.425Z,465
2017-04-13T10:32:30.886Z,440
2017-04-13T10:33:11.370Z,435
2017-04-13T10:33:51.810Z,425
2017-04-13T10:34:32.255Z,450
2017-04-13T10:36:50.259Z,1695
2017-04-13T10:37:30.731Z,1305
2017-04-13T10:38:11.181Z,1760
2017-04-13T10:38:51.978Z,1000
2017-04-13T10:39:33.045Z,1230
2017-04-13T10:40:13.547Z,1240
2017-04-13T10:40:53.994Z,2040
2017-04-13T10:41:34.545Z,1540
2017-04-13T10:42:14.968Z,960
2017-04-13T10:42:55.438Z,720
2017-04-13T10:43:35.904Z,735
2017-04-13T10:44:16.332Z,815
2017-04-13T10:44:56.801Z,895
2017-04-13T10:45:37.311Z,2195
2017-04-13T10:46:17.739Z,2145
2017-04-13T10:46:58.183Z,805
2017-04-13T10:49:31.511Z,480
2017-04-13T10:50:12.024Z,385
2017-04-13T10:50:52.460Z,325
2017-04-13T10:51:32.931Z,255
2017-04-13T10:52:13.439Z,225
2017-04-13T10:52:53.979Z,220
2017-04-13T10:53:34.424Z,245
2017-04-13T10:54:14.916Z,265
2017-04-13T10:54:55.453Z,330
2017-04-13T10:57:23.585Z,695
2017-04-13T10:58:04.075Z,985
2017-04-13T10:58:44.604Z,1245
2017-04-13T10:59:25.265Z,1275
2017-04-13T11:00:05.719Z,1935
2017-04-13T11:00:46.237Z,2115
2017-04-13T11:01:26.720Z,2325
2017-04-13T11:02:07.878Z,2255
2017-04-13T11:02:48.444Z,2160